Ana Sayfa
METAR-TAF:

METAR-TAF

Havaalanları :

Henderson-Oxford Airport

Oxford, Kuzey Carolina, Amerika Birleşik Devletleri

Enlem: 36-21-42N, Boylam: 078-31-45W, yükseklik: 161 m

Güncel hava durumu gözlemi

Rapor saat 05:15 UTC de 8 dakika önce yapıldı.
Rüzgar kuzey/kuzeydoğudan 6 kt
Sıcaklık -7°C
Nem 93%
Basınç 1029 hPa
Görüş mesafesi: 2.8 km
300 ft yükseklikte çok bulutlu
hafif kar

METAR: KHNZ 220515Z AUTO 02006KT 1 3/4SM -SN OVC003 M07/M08 A3038 RMK AO2 T10751085

Saat: 00:23 (05:23 UTC)


TAF: eksik

4.000'den fazla havaalanı için hava durumu gözlemleri ve tahminleri (METAR ve TAF raporları).

Kullanılabilir istasyonlar harita üzerinde sarı ve kırmızı noktalarla gösterilir.

İstasyonun adını görmek için fareyi noktanın üzerinde gezdirin.

Sonrasında hava gözlem ve tahminlerini görmek için tıklayın.

Haritayı değiştirmek için: yaklaştırmak için siyah artı işaretli yeşil düğmeye ve uzaklaştırmak için de eksi işaretli düğmeye hızla tıklayın; bitişik haritalar için yeşil okları kullanın.


METAR-TAF: